createdAt,value
2023-05-23T00:01:55.338Z,17.13
2023-05-23T00:03:58.452Z,17.14
2023-05-23T00:06:02.272Z,17.08
2023-05-23T00:08:05.178Z,17.15
2023-05-23T00:10:08.598Z,17.13
2023-05-23T00:12:12.430Z,17.05
2023-05-23T00:14:16.450Z,17.14
2023-05-23T00:16:21.478Z,16.97
2023-05-23T00:18:24.850Z,17.07
2023-05-23T00:20:27.572Z,17.11
2023-05-23T00:22:30.496Z,17.15
2023-05-23T00:24:33.193Z,17.03
2023-05-23T00:26:35.991Z,16.89
2023-05-23T00:28:39.314Z,16.99
2023-05-23T00:30:42.180Z,16.84
2023-05-23T00:32:46.432Z,16.96
2023-05-23T00:34:49.127Z,17.04
2023-05-23T00:36:51.911Z,17.09
2023-05-23T00:38:55.738Z,17.01
2023-05-23T00:40:58.493Z,17.13
2023-05-23T00:43:01.883Z,17.01
2023-05-23T00:45:05.179Z,16.84
2023-05-23T00:47:09.179Z,16.97
2023-05-23T00:49:13.549Z,17.06
2023-05-23T00:51:16.532Z,16.92
2023-05-23T00:53:19.605Z,17.15
2023-05-23T00:55:22.633Z,17.01
2023-05-23T00:57:25.518Z,17.04
2023-05-23T00:59:28.450Z,17.02
2023-05-23T01:01:32.019Z,17.00
2023-05-23T01:03:34.805Z,17.06
2023-05-23T01:05:41.752Z,17.10
2023-05-23T01:07:44.714Z,17.03
2023-05-23T01:09:47.903Z,17.13
2023-05-23T01:11:58.338Z,17.14
2023-05-23T01:14:06.618Z,17.15
2023-05-23T01:16:14.834Z,17.17
2023-05-23T01:18:20.228Z,17.04
2023-05-23T01:20:25.213Z,16.93
2023-05-23T01:23:11.789Z,16.89
2023-05-23T01:25:29.317Z,17.07
2023-05-23T01:27:46.149Z,16.83
2023-05-23T01:29:55.267Z,16.84
2023-05-23T01:31:59.926Z,16.73
2023-05-23T01:34:03.538Z,16.64
2023-05-23T01:36:07.134Z,16.79
2023-05-23T01:38:09.844Z,16.86
2023-05-23T01:40:13.170Z,16.82
2023-05-23T01:42:16.158Z,16.89
2023-05-23T01:44:21.486Z,16.77
2023-05-23T01:46:25.273Z,16.71
2023-05-23T01:48:30.582Z,16.79
2023-05-23T01:50:33.798Z,16.75
2023-05-23T01:52:36.876Z,16.77
2023-05-23T01:54:43.381Z,16.76
2023-05-23T01:56:46.475Z,16.74
2023-05-23T01:58:49.411Z,16.69
2023-05-23T02:00:53.637Z,16.75
2023-05-23T02:02:56.573Z,16.64
2023-05-23T02:04:59.360Z,16.53
2023-05-23T02:07:02.537Z,16.51
2023-05-23T02:09:05.534Z,16.53
2023-05-23T02:11:08.843Z,16.52
2023-05-23T02:13:11.671Z,16.60
2023-05-23T02:15:14.347Z,16.53
2023-05-23T02:17:18.856Z,16.37
2023-05-23T02:19:21.778Z,16.41
2023-05-23T02:21:24.889Z,16.42
2023-05-23T02:23:27.642Z,16.30
2023-05-23T02:25:30.565Z,16.25
2023-05-23T02:27:33.372Z,16.37
2023-05-23T02:29:36.123Z,16.30
2023-05-23T02:31:39.017Z,16.31
2023-05-23T02:33:43.113Z,16.22
2023-05-23T02:35:45.819Z,16.07
2023-05-23T02:37:48.816Z,16.06
2023-05-23T02:39:51.554Z,15.98
2023-05-23T02:41:54.279Z,16.04
2023-05-23T02:43:57.068Z,15.98
2023-05-23T02:45:59.734Z,16.06
2023-05-23T02:48:02.475Z,16.03
2023-05-23T02:50:07.945Z,15.99
2023-05-23T02:52:10.878Z,16.02
2023-05-23T02:54:13.589Z,16.07
2023-05-23T02:56:16.315Z,16.02
2023-05-23T02:58:19.046Z,16.14
2023-05-23T03:00:21.855Z,16.14
2023-05-23T03:02:24.556Z,16.07
2023-05-23T03:04:27.628Z,16.24
2023-05-23T03:06:32.271Z,16.23
2023-05-23T03:08:34.924Z,16.16
2023-05-23T03:10:37.604Z,16.27
2023-05-23T03:12:40.768Z,16.23
2023-05-23T03:14:43.391Z,16.15
2023-05-23T03:16:46.432Z,16.30
2023-05-23T03:18:49.356Z,16.35
2023-05-23T03:20:52.373Z,16.25
2023-05-23T03:22:56.515Z,16.31
2023-05-23T03:24:59.351Z,16.18
2023-05-23T03:27:03.083Z,16.33
2023-05-23T03:29:06.342Z,16.31
2023-05-23T03:31:09.043Z,16.46
2023-05-23T03:33:12.221Z,16.49
2023-05-23T03:35:15.082Z,16.35
2023-05-23T03:37:17.992Z,16.36
2023-05-23T03:39:22.972Z,16.43
2023-05-23T03:41:26.213Z,16.51
2023-05-23T03:43:29.053Z,16.44
2023-05-23T03:45:31.745Z,16.38
2023-05-23T03:47:34.542Z,16.28
2023-05-23T03:49:37.175Z,16.33
2023-05-23T03:51:39.870Z,16.39
2023-05-23T03:53:42.559Z,16.31
2023-05-23T03:55:46.541Z,16.24
2023-05-23T03:57:49.311Z,16.33
2023-05-23T03:59:52.055Z,16.25
2023-05-23T04:01:55.024Z,16.42
2023-05-23T04:03:58.050Z,16.56
2023-05-23T04:06:01.731Z,16.28
2023-05-23T04:08:04.454Z,16.27
2023-05-23T04:10:08.466Z,16.42
2023-05-23T04:12:12.644Z,16.47
2023-05-23T04:14:15.433Z,16.42
2023-05-23T04:16:18.119Z,16.43
2023-05-23T04:18:20.800Z,16.52
2023-05-23T04:20:23.481Z,16.50
2023-05-23T04:22:26.282Z,16.56
2023-05-23T04:24:28.948Z,16.30
2023-05-23T04:26:31.662Z,16.36
2023-05-23T04:28:35.891Z,16.64
2023-05-23T04:30:38.681Z,16.60
2023-05-23T04:32:41.526Z,16.52
2023-05-23T04:34:44.325Z,16.47
2023-05-23T04:36:47.175Z,16.41
2023-05-23T04:38:49.999Z,16.56
2023-05-23T04:40:53.249Z,16.41
2023-05-23T04:42:56.819Z,16.46
2023-05-23T04:45:02.321Z,16.55
2023-05-23T04:47:11.521Z,16.53
2023-05-23T04:49:22.773Z,16.43
2023-05-23T04:51:25.856Z,16.51
2023-05-23T04:53:28.540Z,16.53
2023-05-23T04:55:32.086Z,16.52
2023-05-23T04:57:34.688Z,16.65
2023-05-23T04:59:38.142Z,16.55
2023-05-23T05:01:42.362Z,16.57
2023-05-23T05:03:45.132Z,16.62
2023-05-23T05:05:47.955Z,16.32
2023-05-23T05:07:50.680Z,16.53
2023-05-23T05:09:53.515Z,16.58
2023-05-23T05:11:56.394Z,16.52
2023-05-23T05:13:59.176Z,16.47
2023-05-23T05:16:01.981Z,16.59
2023-05-23T05:18:06.230Z,16.48
2023-05-23T05:20:11.057Z,16.32
2023-05-23T05:22:13.739Z,16.55
2023-05-23T05:24:16.674Z,16.51
2023-05-23T05:26:19.404Z,16.73
2023-05-23T05:28:22.119Z,16.80
2023-05-23T05:30:24.816Z,16.96
2023-05-23T05:32:29.097Z,16.83
2023-05-23T05:34:33.449Z,16.67
2023-05-23T05:36:36.615Z,16.59
2023-05-23T05:38:39.459Z,16.82
2023-05-23T05:40:42.417Z,16.68
2023-05-23T05:42:45.414Z,16.82
2023-05-23T05:44:49.106Z,16.84
2023-05-23T05:46:52.001Z,16.80
2023-05-23T05:48:54.846Z,16.59
2023-05-23T05:51:01.166Z,16.66
2023-05-23T05:53:03.972Z,16.68
2023-05-23T05:55:08.025Z,16.73
2023-05-23T05:57:10.784Z,16.88
2023-05-23T05:59:13.480Z,16.84
2023-05-23T06:01:16.282Z,16.98
2023-05-23T06:03:19.299Z,16.97
2023-05-23T06:05:22.000Z,17.00
2023-05-23T06:07:26.028Z,16.96
2023-05-23T06:09:28.780Z,16.93
2023-05-23T06:11:32.370Z,16.80
2023-05-23T06:13:35.211Z,16.99
2023-05-23T06:15:38.074Z,16.95
2023-05-23T06:17:40.815Z,16.99
2023-05-23T06:19:43.723Z,16.81
2023-05-23T06:21:46.575Z,17.01
2023-05-23T06:23:50.620Z,17.00
2023-05-23T06:25:53.307Z,17.13
2023-05-23T06:27:56.076Z,17.23
2023-05-23T06:29:58.792Z,17.11
2023-05-23T06:32:01.571Z,16.95
2023-05-23T06:34:04.313Z,16.90
2023-05-23T06:36:07.202Z,17.26
2023-05-23T06:38:10.112Z,17.29
2023-05-23T06:40:14.693Z,16.97
2023-05-23T06:42:17.344Z,17.05
2023-05-23T06:44:19.994Z,17.13
2023-05-23T06:46:22.730Z,17.23
2023-05-23T06:48:25.633Z,17.12
2023-05-23T06:50:28.386Z,17.08
2023-05-23T06:52:31.139Z,17.26
2023-05-23T06:54:33.758Z,17.30
2023-05-23T06:56:37.729Z,17.56
2023-05-23T06:58:41.215Z,17.05
2023-05-23T07:00:44.068Z,17.15
2023-05-23T07:02:48.577Z,16.97
2023-05-23T07:04:51.741Z,16.89
2023-05-23T07:06:54.802Z,16.92
2023-05-23T07:08:57.511Z,16.79
2023-05-23T07:11:00.276Z,16.82
2023-05-23T07:13:04.396Z,16.67
2023-05-23T07:15:08.134Z,16.71
2023-05-23T07:17:10.927Z,16.85
2023-05-23T07:19:14.293Z,16.64
2023-05-23T07:21:16.999Z,16.99
2023-05-23T07:23:19.629Z,16.62
2023-05-23T07:25:23.442Z,16.72
2023-05-23T07:27:27.478Z,16.47
2023-05-23T07:29:32.233Z,16.39
2023-05-23T07:31:35.106Z,16.23
2023-05-23T07:33:37.837Z,16.43
2023-05-23T07:35:40.557Z,16.24
2023-05-23T07:37:43.271Z,16.56
2023-05-23T07:39:45.964Z,16.04
2023-05-23T07:41:49.043Z,16.28
2023-05-23T07:43:51.749Z,16.63
2023-05-23T07:45:55.979Z,16.52
2023-05-23T07:47:58.855Z,16.75
2023-05-23T07:50:02.432Z,16.25
2023-05-23T07:52:06.914Z,16.28
2023-05-23T07:54:09.662Z,16.35
2023-05-23T07:56:12.333Z,16.65
2023-05-23T07:58:15.102Z,16.34
2023-05-23T08:00:18.559Z,16.34
2023-05-23T08:02:22.864Z,16.50
2023-05-23T08:04:25.715Z,16.32
2023-05-23T08:06:28.439Z,16.38
2023-05-23T08:08:31.746Z,16.09
2023-05-23T08:10:34.538Z,15.96
2023-05-23T08:12:37.202Z,16.22
2023-05-23T08:14:50.800Z,16.39
2023-05-23T08:16:55.070Z,16.40
2023-05-23T08:18:59.135Z,16.19
2023-05-23T08:21:03.048Z,16.30
2023-05-23T08:23:05.712Z,16.68
2023-05-23T08:25:08.945Z,16.18
2023-05-23T08:27:11.705Z,16.14
2023-05-23T08:29:14.682Z,16.07
2023-05-23T08:31:17.386Z,16.00
2023-05-23T08:33:20.112Z,15.96
2023-05-23T08:35:24.544Z,15.96
2023-05-23T08:37:27.197Z,15.80
2023-05-23T08:39:29.900Z,15.62
2023-05-23T08:41:32.742Z,15.65
2023-05-23T08:43:35.443Z,15.84
2023-05-23T08:45:38.168Z,15.71
2023-05-23T08:47:43.822Z,15.84
2023-05-23T08:49:47.507Z,16.11
2023-05-23T08:51:53.340Z,15.93
2023-05-23T08:53:56.959Z,15.72
2023-05-23T08:56:02.616Z,16.20
2023-05-23T08:58:05.656Z,16.17
2023-05-23T09:00:14.551Z,16.28
2023-05-23T09:02:18.161Z,16.42
2023-05-23T09:04:21.021Z,16.27
2023-05-23T09:06:24.100Z,16.07
2023-05-23T09:08:28.418Z,16.19
2023-05-23T09:10:31.109Z,16.30
2023-05-23T09:12:34.108Z,16.39
2023-05-23T09:14:37.408Z,15.99
2023-05-23T09:16:40.383Z,16.21
2023-05-23T09:18:44.732Z,16.32
2023-05-23T09:20:47.377Z,16.19
2023-05-23T09:22:50.501Z,16.22
2023-05-23T09:24:55.306Z,16.54
2023-05-23T09:26:58.035Z,16.57
2023-05-23T09:29:01.417Z,16.41
2023-05-23T09:31:07.097Z,16.83
2023-05-23T09:33:09.875Z,16.90
2023-05-23T09:35:14.293Z,16.77
2023-05-23T09:37:19.064Z,16.80
2023-05-23T09:39:21.935Z,17.12
2023-05-23T09:41:26.557Z,17.01
2023-05-23T09:43:30.121Z,17.12
2023-05-23T09:45:33.440Z,16.54
2023-05-23T09:47:36.318Z,16.87
2023-05-23T09:49:41.412Z,16.59
2023-05-23T09:51:44.173Z,17.37
2023-05-23T09:53:46.917Z,17.05
2023-05-23T09:55:52.096Z,17.32
2023-05-23T09:57:57.098Z,17.35
2023-05-23T10:00:02.258Z,17.65
2023-05-23T10:02:08.886Z,17.34
2023-05-23T10:04:13.472Z,17.45
2023-05-23T10:06:23.371Z,18.34
2023-05-23T10:08:31.487Z,17.79
2023-05-23T10:10:34.806Z,17.83
2023-05-23T10:12:48.764Z,17.42
2023-05-23T10:14:56.334Z,17.65
2023-05-23T10:17:08.635Z,17.80
2023-05-23T10:19:18.838Z,18.36
2023-05-23T10:21:34.192Z,17.75
2023-05-23T10:23:38.286Z,18.11
2023-05-23T10:25:42.101Z,18.74
2023-05-23T10:27:45.532Z,18.69
2023-05-23T10:29:49.219Z,18.87
2023-05-23T10:31:54.860Z,19.78
2023-05-23T10:34:04.052Z,19.57
2023-05-23T10:36:13.180Z,20.17
2023-05-23T10:38:31.929Z,20.08
2023-05-23T10:40:44.248Z,18.96
2023-05-23T10:42:55.509Z,18.71
2023-05-23T10:45:16.423Z,18.47
2023-05-23T10:47:28.912Z,18.79
2023-05-23T10:49:42.553Z,18.43
2023-05-23T10:51:51.223Z,18.83
2023-05-23T10:53:55.333Z,19.61
2023-05-23T10:55:58.852Z,19.45
2023-05-23T10:58:12.182Z,19.88
2023-05-23T11:00:17.003Z,19.01
2023-05-23T11:02:21.498Z,18.75
2023-05-23T11:04:30.171Z,18.72
2023-05-23T11:06:35.459Z,18.83
2023-05-23T11:08:47.827Z,18.64
2023-05-23T11:11:00.645Z,18.60
2023-05-23T11:13:08.253Z,18.81
2023-05-23T11:15:23.906Z,18.15
2023-05-23T11:17:33.993Z,18.32
2023-05-23T11:19:38.101Z,18.67
2023-05-23T11:21:41.598Z,18.01
2023-05-23T11:23:44.341Z,18.21
2023-05-23T11:25:50.668Z,18.78
2023-05-23T11:27:53.782Z,18.58
2023-05-23T11:30:01.953Z,18.64
2023-05-23T11:32:16.868Z,19.58
2023-05-23T11:34:21.583Z,18.97
2023-05-23T11:36:25.626Z,18.74
2023-05-23T11:38:28.599Z,18.42
2023-05-23T11:40:32.906Z,18.55
2023-05-23T11:42:35.677Z,19.11
2023-05-23T11:44:38.401Z,19.94
2023-05-23T11:46:41.650Z,19.88
2023-05-23T11:48:46.421Z,19.93
2023-05-23T11:50:50.412Z,19.50
2023-05-23T11:52:56.090Z,19.16
2023-05-23T11:55:03.858Z,19.20
2023-05-23T11:57:07.032Z,19.42
2023-05-23T11:59:10.638Z,19.39
2023-05-23T12:01:14.001Z,19.72
2023-05-23T12:03:17.035Z,19.91
2023-05-23T12:05:19.962Z,19.95
2023-05-23T12:07:22.728Z,19.41
2023-05-23T12:09:26.819Z,20.39
2023-05-23T12:11:32.611Z,18.70
2023-05-23T12:13:35.393Z,19.22
2023-05-23T12:15:40.354Z,19.00
2023-05-23T12:17:47.178Z,19.20
2023-05-23T12:19:50.952Z,18.71
2023-05-23T12:21:53.690Z,18.46
2023-05-23T12:23:57.969Z,19.02
2023-05-23T12:26:06.862Z,19.43
2023-05-23T12:28:13.802Z,19.32
2023-05-23T12:30:17.942Z,18.45
2023-05-23T12:32:20.868Z,19.25
2023-05-23T12:34:23.568Z,18.94
2023-05-23T12:36:28.945Z,19.10
2023-05-23T12:38:37.679Z,20.26
2023-05-23T12:40:40.390Z,20.13
2023-05-23T12:42:51.473Z,20.29
2023-05-23T12:44:55.077Z,20.58
2023-05-23T12:46:57.770Z,20.82
2023-05-23T12:49:00.579Z,20.04
2023-05-23T12:51:03.783Z,19.39
2023-05-23T12:53:06.424Z,18.69
2023-05-23T12:55:10.458Z,19.11
2023-05-23T12:57:13.146Z,18.79
2023-05-23T12:59:17.375Z,19.39
2023-05-23T13:01:22.338Z,19.69
2023-05-23T13:03:25.877Z,19.40
2023-05-23T13:05:28.685Z,18.98
2023-05-23T13:07:31.592Z,20.02
2023-05-23T13:09:34.269Z,18.82
2023-05-23T13:11:37.942Z,19.24
2023-05-23T13:13:40.680Z,19.30
2023-05-23T13:15:45.446Z,19.59
2023-05-23T13:17:50.299Z,19.22
2023-05-23T13:19:53.333Z,19.14
2023-05-23T13:21:56.114Z,19.40
2023-05-23T13:23:58.788Z,19.35
2023-05-23T13:26:01.870Z,19.63
2023-05-23T13:28:04.546Z,19.50
2023-05-23T13:30:08.581Z,18.97
2023-05-23T13:32:12.574Z,19.39
2023-05-23T13:34:15.377Z,19.35
2023-05-23T13:36:18.063Z,19.33
2023-05-23T13:38:21.573Z,19.17
2023-05-23T13:40:24.599Z,19.00
2023-05-23T13:42:27.285Z,19.10
2023-05-23T13:44:30.020Z,18.92
2023-05-23T13:46:32.700Z,18.93
2023-05-23T13:48:36.786Z,18.77
2023-05-23T13:50:39.612Z,18.52
2023-05-23T13:52:45.675Z,18.27
2023-05-23T13:54:50.188Z,17.97
2023-05-23T13:56:52.973Z,17.85
2023-05-23T13:58:55.901Z,17.95
2023-05-23T14:00:58.601Z,18.28
2023-05-23T14:03:01.339Z,18.26
2023-05-23T14:05:07.272Z,18.47
2023-05-23T14:07:09.969Z,18.80
2023-05-23T14:09:12.956Z,18.97
2023-05-23T14:11:15.725Z,18.82
2023-05-23T14:13:18.785Z,18.63
2023-05-23T14:15:21.735Z,19.35
2023-05-23T14:17:24.721Z,19.58
2023-05-23T14:19:27.484Z,19.31
2023-05-23T14:21:32.397Z,19.53
2023-05-23T14:23:35.083Z,19.70
2023-05-23T14:25:37.949Z,19.59
2023-05-23T14:27:41.233Z,19.48
2023-05-23T14:29:46.537Z,19.05
2023-05-23T14:31:49.249Z,19.52
2023-05-23T14:33:51.969Z,19.24
2023-05-23T14:35:54.618Z,18.95
2023-05-23T14:37:58.624Z,18.98
2023-05-23T14:40:01.305Z,18.81
2023-05-23T14:42:04.120Z,19.75
2023-05-23T14:44:06.944Z,19.08
2023-05-23T14:46:09.873Z,19.08
2023-05-23T14:48:12.831Z,18.75
2023-05-23T14:50:15.941Z,19.11
2023-05-23T14:52:18.740Z,18.78
2023-05-23T14:54:23.006Z,18.80
2023-05-23T14:56:27.125Z,18.85
2023-05-23T14:58:29.912Z,18.99
2023-05-23T15:00:33.197Z,19.26
2023-05-23T15:02:36.269Z,19.37
2023-05-23T15:04:39.002Z,18.53
2023-05-23T15:06:42.864Z,18.95
2023-05-23T15:08:46.804Z,18.86
2023-05-23T15:10:50.918Z,18.97
2023-05-23T15:12:53.602Z,18.66
2023-05-23T15:15:03.088Z,18.92
2023-05-23T15:17:08.540Z,18.85
2023-05-23T15:19:11.626Z,19.02
2023-05-23T15:21:14.619Z,18.90
2023-05-23T15:23:17.299Z,18.92
2023-05-23T15:25:30.330Z,19.17
2023-05-23T15:27:44.783Z,19.22
2023-05-23T15:29:47.586Z,18.88
2023-05-23T15:31:50.468Z,18.54
2023-05-23T15:33:53.208Z,18.42
2023-05-23T15:35:57.779Z,18.58
2023-05-23T15:38:00.645Z,18.43
2023-05-23T15:40:03.998Z,18.30
2023-05-23T15:42:07.172Z,18.73
2023-05-23T15:44:14.084Z,18.57
2023-05-23T15:46:17.672Z,18.55
2023-05-23T15:48:20.450Z,19.02
2023-05-23T15:50:23.158Z,18.83
2023-05-23T15:52:26.011Z,18.73
2023-05-23T15:54:28.808Z,18.44
2023-05-23T15:56:31.568Z,18.66
2023-05-23T15:58:34.273Z,18.54
2023-05-23T16:00:38.390Z,18.65
2023-05-23T16:02:41.233Z,18.59
2023-05-23T16:04:43.961Z,18.61
2023-05-23T16:06:46.686Z,18.79
2023-05-23T16:08:49.405Z,18.85
2023-05-23T16:10:52.081Z,18.43
2023-05-23T16:12:54.831Z,18.73
2023-05-23T16:14:58.281Z,18.56
2023-05-23T16:17:04.941Z,18.64
2023-05-23T16:19:07.711Z,18.64
2023-05-23T16:21:10.972Z,18.89
2023-05-23T16:23:13.708Z,18.30
2023-05-23T16:25:16.385Z,18.22
2023-05-23T16:27:19.046Z,18.32
2023-05-23T16:29:21.705Z,18.27
2023-05-23T16:31:27.917Z,18.04
2023-05-23T16:33:31.980Z,17.96
2023-05-23T16:35:35.212Z,18.04
2023-05-23T16:37:38.058Z,18.28
2023-05-23T16:39:41.568Z,18.23
2023-05-23T16:41:44.505Z,18.13
2023-05-23T16:43:47.258Z,18.05
2023-05-23T16:45:49.996Z,17.91
2023-05-23T16:47:52.738Z,18.17
2023-05-23T16:49:56.784Z,17.76
2023-05-23T16:51:59.619Z,17.94
2023-05-23T16:54:02.403Z,18.00
2023-05-23T16:56:05.383Z,17.80
2023-05-23T16:58:08.089Z,17.84
2023-05-23T17:00:12.557Z,17.98
2023-05-23T17:02:15.936Z,18.05
2023-05-23T17:04:20.509Z,18.02
2023-05-23T17:06:24.761Z,17.72
2023-05-23T17:08:27.524Z,17.49
2023-05-23T17:10:30.302Z,17.66
2023-05-23T17:12:33.114Z,17.41
2023-05-23T17:14:35.907Z,17.45
2023-05-23T17:16:38.585Z,17.38
2023-05-23T17:18:41.412Z,17.43
2023-05-23T17:20:44.127Z,17.33
2023-05-23T17:22:48.419Z,17.56
2023-05-23T17:24:51.194Z,17.42
2023-05-23T17:26:54.057Z,17.32
2023-05-23T17:28:56.754Z,17.32
2023-05-23T17:30:59.445Z,17.05
2023-05-23T17:33:02.327Z,17.16
2023-05-23T17:35:05.332Z,17.00
2023-05-23T17:37:08.250Z,17.11
2023-05-23T17:39:12.244Z,17.12
2023-05-23T17:41:16.164Z,17.23
2023-05-23T17:43:18.903Z,17.33
2023-05-23T17:45:22.509Z,17.33
2023-05-23T17:47:25.298Z,17.22
2023-05-23T17:49:27.978Z,17.17
2023-05-23T17:51:30.928Z,17.11
2023-05-23T17:53:33.669Z,17.17
2023-05-23T17:55:37.669Z,17.37
2023-05-23T17:57:40.356Z,17.06
2023-05-23T17:59:43.019Z,17.22
2023-05-23T18:01:45.866Z,17.07
2023-05-23T18:03:49.130Z,17.36
2023-05-23T18:05:51.971Z,17.31
2023-05-23T18:07:54.668Z,16.99
2023-05-23T18:09:59.641Z,17.01
2023-05-23T18:12:03.933Z,16.99
2023-05-23T18:14:07.188Z,16.83
2023-05-23T18:16:10.026Z,16.76
2023-05-23T18:18:12.817Z,17.00
2023-05-23T18:20:15.682Z,16.93
2023-05-23T18:22:19.845Z,16.90
2023-05-23T18:24:22.811Z,16.62
2023-05-23T18:26:25.496Z,16.72
2023-05-23T18:28:29.521Z,16.72
2023-05-23T18:30:33.512Z,16.69
2023-05-23T18:32:37.803Z,16.70
2023-05-23T18:34:40.939Z,16.78
2023-05-23T18:36:43.641Z,16.72
2023-05-23T18:38:46.560Z,16.76
2023-05-23T18:40:49.395Z,16.59
2023-05-23T18:42:52.207Z,16.67
2023-05-23T18:44:56.375Z,16.89
2023-05-23T18:46:59.206Z,16.75
2023-05-23T18:49:02.018Z,16.63
2023-05-23T18:51:05.456Z,16.66
2023-05-23T18:53:08.303Z,16.50
2023-05-23T18:55:12.117Z,16.51
2023-05-23T18:57:17.349Z,16.43
2023-05-23T18:59:19.992Z,16.41
2023-05-23T19:01:24.277Z,16.49
2023-05-23T19:03:27.064Z,16.75
2023-05-23T19:05:29.929Z,16.71
2023-05-23T19:07:32.579Z,16.33
2023-05-23T19:09:35.378Z,16.54
2023-05-23T19:11:38.341Z,16.39
2023-05-23T19:13:41.178Z,16.23
2023-05-23T19:15:45.662Z,16.08
2023-05-23T19:17:49.738Z,16.21
2023-05-23T19:19:52.472Z,16.11
2023-05-23T19:21:55.147Z,16.16
2023-05-23T19:23:57.794Z,16.36
2023-05-23T19:26:00.556Z,16.21
2023-05-23T19:28:03.278Z,16.35
2023-05-23T19:30:07.316Z,16.43
2023-05-23T19:32:09.994Z,16.11
2023-05-23T19:34:14.122Z,16.27
2023-05-23T19:36:16.880Z,16.04
2023-05-23T19:38:19.785Z,16.14
2023-05-23T19:40:22.521Z,16.13
2023-05-23T19:42:25.320Z,16.20
2023-05-23T19:44:28.036Z,15.85
2023-05-23T19:46:30.917Z,15.93
2023-05-23T19:48:33.642Z,15.80
2023-05-23T19:50:39.237Z,15.76
2023-05-23T19:52:42.328Z,15.68
2023-05-23T19:54:45.025Z,15.66
2023-05-23T19:56:47.955Z,15.51
2023-05-23T19:58:50.862Z,15.46
2023-05-23T20:00:53.735Z,15.60
2023-05-23T20:02:56.764Z,15.45
2023-05-23T20:04:59.622Z,15.24
2023-05-23T20:07:03.892Z,15.30
2023-05-23T20:09:07.049Z,15.25
2023-05-23T20:11:10.233Z,15.25
2023-05-23T20:13:13.093Z,15.36
2023-05-23T20:15:19.619Z,15.25
2023-05-23T20:17:28.386Z,15.35
2023-05-23T20:19:31.168Z,15.26
2023-05-23T20:21:33.943Z,15.14
2023-05-23T20:23:38.221Z,15.22
2023-05-23T20:25:41.616Z,15.32
2023-05-23T20:27:44.397Z,15.31
2023-05-23T20:29:47.469Z,15.30
2023-05-23T20:31:50.281Z,15.24
2023-05-23T20:33:53.409Z,15.33
2023-05-23T20:35:56.530Z,15.10
2023-05-23T20:37:59.299Z,14.99
2023-05-23T20:40:03.454Z,15.10
2023-05-23T20:42:10.277Z,15.22
2023-05-23T20:44:14.160Z,15.31
2023-05-23T20:46:17.022Z,15.11
2023-05-23T20:48:19.698Z,14.88
2023-05-23T20:50:23.341Z,14.98
2023-05-23T20:52:26.081Z,14.85
2023-05-23T20:54:29.201Z,14.93
2023-05-23T20:56:33.542Z,14.81
2023-05-23T20:58:36.391Z,14.74
2023-05-23T21:00:39.156Z,14.83
2023-05-23T21:02:42.804Z,14.84
2023-05-23T21:04:45.645Z,14.71
2023-05-23T21:06:48.405Z,14.68
2023-05-23T21:08:51.124Z,14.62
2023-05-23T21:10:54.906Z,14.53
2023-05-23T21:13:00.158Z,14.46
2023-05-23T21:15:03.284Z,14.48
2023-05-23T21:17:06.183Z,14.35
2023-05-23T21:19:09.159Z,14.40
2023-05-23T21:21:12.013Z,14.31
2023-05-23T21:23:14.765Z,14.27
2023-05-23T21:25:17.934Z,14.32
2023-05-23T21:27:20.743Z,14.06
2023-05-23T21:29:24.739Z,13.96
2023-05-23T21:31:40.268Z,13.87
2023-05-23T21:33:44.007Z,13.90
2023-05-23T21:35:46.742Z,13.72
2023-05-23T21:37:49.445Z,13.63
2023-05-23T21:39:52.735Z,13.78
2023-05-23T21:41:55.593Z,13.69
2023-05-23T21:43:58.578Z,13.55
2023-05-23T21:46:02.605Z,13.50
2023-05-23T21:48:05.560Z,13.71
2023-05-23T21:50:09.255Z,13.56
2023-05-23T21:52:11.993Z,13.72
2023-05-23T21:54:14.711Z,13.61
2023-05-23T21:56:17.441Z,13.63
2023-05-23T21:58:20.153Z,13.54
2023-05-23T22:00:23.004Z,13.50
2023-05-23T22:02:27.233Z,13.55
2023-05-23T22:04:30.113Z,13.48
2023-05-23T22:06:33.560Z,13.67
2023-05-23T22:08:36.400Z,13.48
2023-05-23T22:10:40.507Z,13.53
2023-05-23T22:12:43.511Z,13.52
2023-05-23T22:14:46.335Z,13.26
2023-05-23T22:16:50.120Z,13.38
2023-05-23T22:18:57.997Z,13.31
2023-05-23T22:21:00.726Z,13.13
2023-05-23T22:23:03.496Z,13.24
2023-05-23T22:25:07.222Z,13.32
2023-05-23T22:27:09.998Z,13.35
2023-05-23T22:29:12.917Z,13.47
2023-05-23T22:31:16.623Z,13.41
2023-05-23T22:33:19.465Z,13.29
2023-05-23T22:35:23.514Z,13.16
2023-05-23T22:37:26.361Z,13.33
2023-05-23T22:39:29.130Z,13.22
2023-05-23T22:41:32.068Z,13.19
2023-05-23T22:43:34.765Z,13.37
2023-05-23T22:45:42.418Z,13.35
2023-05-23T22:47:48.423Z,13.40
2023-05-23T22:49:53.951Z,13.39
2023-05-23T22:51:59.251Z,13.53
2023-05-23T22:54:02.303Z,13.26
2023-05-23T22:56:05.577Z,13.32
2023-05-23T22:58:08.973Z,13.06
2023-05-23T23:00:13.487Z,12.98
2023-05-23T23:02:16.377Z,13.06
2023-05-23T23:04:23.430Z,13.03
2023-05-23T23:06:26.617Z,13.26
2023-05-23T23:08:31.072Z,13.09
2023-05-23T23:10:33.813Z,12.79
2023-05-23T23:12:36.619Z,12.83
2023-05-23T23:14:39.313Z,12.90
2023-05-23T23:16:42.624Z,12.84
2023-05-23T23:18:45.365Z,12.82
2023-05-23T23:20:48.340Z,12.86
2023-05-23T23:22:51.319Z,12.72
2023-05-23T23:24:55.751Z,12.73
2023-05-23T23:26:58.432Z,12.94
2023-05-23T23:29:03.054Z,12.95
2023-05-23T23:31:05.832Z,12.80
2023-05-23T23:33:09.009Z,12.93
2023-05-23T23:35:12.033Z,12.76
2023-05-23T23:37:14.682Z,12.82
2023-05-23T23:39:17.419Z,12.94
2023-05-23T23:41:22.794Z,12.87
2023-05-23T23:43:25.479Z,12.88
2023-05-23T23:45:28.153Z,12.83
2023-05-23T23:47:32.286Z,12.89
2023-05-23T23:49:35.117Z,12.88
2023-05-23T23:51:37.848Z,12.76
2023-05-23T23:53:40.581Z,12.65
2023-05-23T23:55:43.312Z,12.76
2023-05-23T23:57:47.647Z,12.64
2023-05-23T23:59:50.341Z,12.58
